Strona główna
METAR-TAF:

METAR-TAF

Lotnisko :

Río Cuarto, Argentyna

Szerokość geograficzna: 33-07S, Długość geograficzna: 064-14W, wysokość: 420 m

Aktualna obserwacja pogody

Raport powstał 1 godzina i 41 minut temu, godzina 04:00 UTC
Wiatr 9 kt od południowo-południowy wschód
Temperatura 15°C
Wilgotność 100%
Ciśnienie 1016 hPa
Widzialność: 2000 m
Zachmurzenie całkowite na wysokości 500 ft
słaby mżawka, zamglenie

METAR: SAOC 220400Z 16009KT 2000 -DZBR OVC005 15/15 Q1016

czas: 02:41 (05:41 UTC)


TAF: brakujący

Obserwacja i prognoza pogody dla ponad 4000 lotnisk (raport METAR i TAF).

Dostępne stacje oznaczono żółtymi i czerwonymi punktami na mapie.

Najedź kursorem aby zobaczyć nazwę stacji.

Kliknij aby zobaczyć obserwacje i prognozy pogody.

Aby zmienić mapę: kliknij na zielony przycisk z czarnym krzyżykiem, aby powiększyć; na zielony przycisk z myślnikiem, aby pomniejszyć; na zielone strzałki, aby przejść do map sąsiednich.


METAR-TAF: